Aureola, Iowa
Current Conditions -  °F | °C
As of 5:35 PM on Monday 20 Oct 2014 (Local Time) from KCCY Reporting Station
Clear Clear  
Wind Chill: 17°   Ceiling: Unl
Heat Index: 17°   Visibility: 10mi
Dew Point:   Wind: 10mph
Humidity: 45%   Direction: 320°NW
Pressure: 29.99"   Gusts: 17mph
Location:  42.9618°N, 92.9184°W
Report Text: KCCY 202235Z AUTO 32009G15KT 10SM CLR 17/05 A2999 RMK AO2
Loading
Personal Weather Stations






























Interactive Weather Map
Tropical Storm Tracking
New forecast layout! Learn more

10-Day Weather Forecast

Advertisements
Track Severe Weather on mobile